Time;durP1;ratioP1;P1;durP2;ratioP2;P2;SDS_P1;SDS_P2;PMS_P1;PMS_P2;Temp;Humidity;BMP_temperature;BMP_pressure;BME280_temperature;BME280_humidity;BME280_pressure;Samples;Min_cycle;Max_cycle;Signal;HPM_P1;HPM_P2
2021/08/12 00:02:24;;;;;;;1.75;1.45;;;16.40;59.40;;;;;;5010558;28;20236;-51
2021/08/12 00:05:12;;;;;;;1.83;1.52;;;16.40;59.40;;;;;;5010120;28;20232;-54
2021/08/12 00:07:43;;;;;;;3.45;1.70;;;16.40;59.30;;;;;;5010397;28;20244;-49
2021/08/12 00:10:14;;;;;;;3.30;1.50;;;16.50;59.30;;;;;;5010340;28;20228;-53
2021/08/12 00:13:01;;;;;;;1.50;1.33;;;16.50;59.30;;;;;;5012620;28;20240;-50
2021/08/12 00:15:34;;;;;;;2.17;1.90;;;16.50;59.30;;;;;;5012531;28;20749;-55
2021/08/12 00:18:04;;;;;;;1.70;1.40;;;16.50;59.30;;;;;;5008119;28;20205;-53
2021/08/12 00:20:35;;;;;;;2.65;1.50;;;16.50;59.30;;;;;;4993478;28;20304;-56
2021/08/12 00:23:05;;;;;;;1.92;1.50;;;16.50;59.30;;;;;;4993763;28;20284;-52
2021/08/12 00:25:36;;;;;;;1.60;1.50;;;16.50;59.30;;;;;;4993249;28;20263;-51
2021/08/12 00:28:06;;;;;;;1.77;1.55;;;16.50;59.30;;;;;;4994261;28;20240;-54
2021/08/12 00:30:39;;;;;;;1.90;1.45;;;16.60;59.40;;;;;;5005635;28;20304;-56
2021/08/12 00:33:09;;;;;;;1.58;1.40;;;16.60;59.40;;;;;;5014201;28;20280;-50
2021/08/12 00:35:39;;;;;;;1.27;1.17;;;16.60;60.00;;;;;;5016531;28;20240;-53
2021/08/12 00:38:10;;;;;;;1.60;1.40;;;16.70;59.40;;;;;;5013536;28;20718;-51
2021/08/12 00:40:40;;;;;;;1.60;1.45;;;16.60;59.40;;;;;;4993898;28;20705;-55
2021/08/12 00:43:11;;;;;;;1.65;1.52;;;16.60;59.50;;;;;;5009884;28;20240;-58
2021/08/12 00:45:43;;;;;;;1.80;1.55;;;16.70;59.70;;;;;;5008220;28;20253;-55
2021/08/12 00:48:13;;;;;;;2.38;1.67;;;16.70;59.80;;;;;;5011779;28;20283;-55
2021/08/12 00:50:45;;;;;;;2.00;1.52;;;16.70;59.90;;;;;;5012862;28;20283;-54
2021/08/12 00:53:15;;;;;;;2.22;1.63;;;16.70;60.00;;;;;;5012804;28;20208;-55
2021/08/12 00:55:46;;;;;;;2.40;1.67;;;16.70;60.30;;;;;;5011424;28;20615;-57
2021/08/12 00:58:16;;;;;;;2.33;1.70;;;16.80;60.80;;;;;;5012403;28;20624;-50
2021/08/12 01:00:49;;;;;;;2.38;1.88;;;16.70;60.90;;;;;;5012426;28;20217;-56
2021/08/12 01:03:20;;;;;;;1.35;1.25;;;16.80;60.90;;;;;;5012003;28;20228;-55
2021/08/12 01:05:51;;;;;;;1.70;1.60;;;16.80;60.80;;;;;;5012370;28;20241;-53
2021/08/12 01:08:33;;;;;;;1.83;1.58;;;16.80;60.60;;;;;;5012402;28;20316;-55
2021/08/12 01:11:07;;;;;;;1.85;1.50;;;16.80;60.50;;;;;;5012148;28;20200;-52
2021/08/12 01:13:48;;;;;;;1.45;1.35;;;16.80;60.40;;;;;;4993806;28;20208;-57
2021/08/12 01:16:21;;;;;;;1.67;1.58;;;16.80;60.30;;;;;;4993180;28;20221;-55
2021/08/12 01:21:52;;;;;;;1.70;1.23;;;16.90;60.10;;;;;;4992802;28;20224;-55
2021/08/12 01:25:00;;;;;;;2.28;1.30;;;16.90;60.00;;;;;;4993085;28;20225;-55
2021/08/12 01:27:49;;;;;;;2.03;1.30;;;16.90;60.00;;;;;;4992633;28;20683;-48
2021/08/12 01:30:20;;;;;;;1.45;1.35;;;16.90;59.90;;;;;;4992445;28;20210;-47
2021/08/12 01:32:58;;;;;;;1.70;1.13;;;16.90;59.80;;;;;;4992544;28;20276;-56
2021/08/12 01:35:31;;;;;;;1.20;1.10;;;16.90;59.70;;;;;;4992834;28;20241;-55
2021/08/12 01:40:49;;;;;;;1.35;1.25;;;16.90;59.60;;;;;;4992995;28;20225;-54
2021/08/12 01:43:19;;;;;;;1.42;1.33;;;16.90;59.60;;;;;;5009175;28;20228;-49
2021/08/12 01:45:51;;;;;;;1.40;1.13;;;16.90;59.60;;;;;;5011215;28;20271;-54
2021/08/12 01:48:22;;;;;;;1.80;1.20;;;16.90;59.40;;;;;;5012119;28;20246;-55
2021/08/12 01:53:41;;;;;;;1.23;1.13;;;17.00;59.40;;;;;;5012656;28;20294;-54
2021/08/12 01:56:14;;;;;;;1.20;1.10;;;17.00;59.40;;;;;;5011440;28;20249;-58
2021/08/12 01:58:45;;;;;;;1.45;1.23;;;17.00;59.40;;;;;;5012002;28;20661;-50
2021/08/12 02:01:15;;;;;;;1.20;1.10;;;17.00;59.30;;;;;;5011050;28;20273;-50
2021/08/12 02:03:45;;;;;;;1.33;1.10;;;17.00;59.30;;;;;;4995310;28;20222;-49
2021/08/12 02:06:18;;;;;;;1.10;1.00;;;17.00;59.30;;;;;;4991967;28;20329;-51
2021/08/12 02:08:48;;;;;;;1.17;1.02;;;17.00;59.20;;;;;;4992933;28;20260;-49
2021/08/12 02:11:19;;;;;;;0.75;0.70;;;17.00;59.20;;;;;;4992812;28;20225;-52
2021/08/12 02:13:49;;;;;;;0.90;0.80;;;17.00;59.10;;;;;;5011305;28;20197;-59
2021/08/12 02:16:19;;;;;;;1.10;1.00;;;17.00;59.10;;;;;;4997187;28;20257;-50
2021/08/12 02:18:50;;;;;;;1.10;1.00;;;17.00;59.10;;;;;;4992146;28;20233;-59
2021/08/12 02:21:42;;;;;;;1.17;1.08;;;17.00;59.10;;;;;;4992276;28;20312;-59
2021/08/12 02:24:13;;;;;;;1.02;0.93;;;17.00;59.00;;;;;;4992109;28;20229;-55
2021/08/12 02:26:44;;;;;;;1.10;1.00;;;17.00;58.90;;;;;;4992437;28;20671;-55
2021/08/12 02:29:16;;;;;;;0.95;0.80;;;17.00;58.90;;;;;;4992208;28;20236;-50
2021/08/12 02:31:47;;;;;;;0.93;0.90;;;17.00;58.90;;;;;;4991522;28;20250;-48
2021/08/12 02:34:18;;;;;;;1.17;1.08;;;17.00;58.80;;;;;;5011596;28;20232;-48
2021/08/12 02:36:50;;;;;;;1.33;1.08;;;17.00;58.80;;;;;;5011347;28;20259;-52
2021/08/12 02:39:21;;;;;;;0.80;0.80;;;17.00;58.80;;;;;;5012604;28;20228;-48
2021/08/12 02:41:51;;;;;;;1.38;1.00;;;17.00;58.70;;;;;;5011017;28;20279;-53
2021/08/12 02:44:21;;;;;;;1.10;0.90;;;17.00;58.70;;;;;;5010408;28;20243;-50
2021/08/12 02:46:52;;;;;;;2.55;1.20;;;17.00;58.70;;;;;;5010147;28;20245;-53
2021/08/12 02:49:41;;;;;;;0.95;0.93;;;17.00;58.70;;;;;;5011293;28;20227;-53
2021/08/12 02:52:13;;;;;;;0.90;0.90;;;17.00;58.70;;;;;;5010914;28;20705;-56
2021/08/12 02:55:01;;;;;;;1.27;1.00;;;17.00;58.70;;;;;;5011350;28;20255;-56
2021/08/12 02:57:32;;;;;;;1.17;1.08;;;17.00;58.60;;;;;;5011070;28;20291;-48
2021/08/12 03:00:20;;;;;;;0.73;0.73;;;17.00;58.60;;;;;;5009952;28;20243;-49
2021/08/12 03:02:50;;;;;;;0.73;0.70;;;17.00;58.50;;;;;;5001685;28;20311;-53
2021/08/12 03:05:21;;;;;;;0.70;0.70;;;17.00;58.50;;;;;;4991176;28;20296;-50
2021/08/12 03:07:53;;;;;;;0.60;0.60;;;17.00;58.50;;;;;;4990893;28;20201;-47
2021/08/12 03:10:24;;;;;;;1.00;0.90;;;17.00;58.40;;;;;;4992290;28;20229;-50
2021/08/12 03:12:54;;;;;;;1.30;0.98;;;17.00;58.40;;;;;;5000854;28;20264;-58
2021/08/12 03:15:25;;;;;;;1.15;0.98;;;17.00;58.40;;;;;;4991767;28;20244;-52
2021/08/12 03:18:13;;;;;;;0.73;0.73;;;17.00;58.40;;;;;;4999119;28;20232;-48
2021/08/12 03:20:44;;;;;;;1.23;0.80;;;17.00;58.40;;;;;;5011130;28;20676;-57
2021/08/12 03:23:16;;;;;;;1.20;0.70;;;17.00;58.20;;;;;;4999255;28;20201;-56
2021/08/12 03:25:46;;;;;;;0.75;0.75;;;17.00;58.20;;;;;;4991344;28;20253;-51
2021/08/12 03:28:17;;;;;;;1.38;0.73;;;17.00;58.20;;;;;;4991260;28;20326;-56
2021/08/12 03:30:47;;;;;;;1.30;0.82;;;17.00;58.10;;;;;;4991404;28;20710;-55
2021/08/12 03:33:18;;;;;;;0.70;0.68;;;17.00;58.10;;;;;;4991639;28;20232;-55
2021/08/12 03:35:48;;;;;;;1.30;0.65;;;17.00;58.10;;;;;;4991481;28;20304;-52
2021/08/12 03:38:21;;;;;;;0.80;0.80;;;17.00;58.00;;;;;;4991582;28;20232;-55
2021/08/12 03:40:51;;;;;;;0.82;0.80;;;17.00;58.00;;;;;;4991644;28;20213;-52
2021/08/12 03:43:21;;;;;;;0.93;0.70;;;17.00;57.90;;;;;;5009237;28;20243;-51
2021/08/12 03:48:38;;;;;;;0.85;0.70;;;17.00;57.80;;;;;;5013949;28;20677;-49
2021/08/12 03:51:08;;;;;;;0.93;0.80;;;17.00;57.70;;;;;;5014851;28;20604;-54
2021/08/12 03:53:41;;;;;;;0.60;0.60;;;17.00;57.60;;;;;;5015251;28;20251;-54
2021/08/12 03:56:11;;;;;;;0.85;0.75;;;17.00;57.60;;;;;;5014597;28;20700;-54
2021/08/12 03:58:42;;;;;;;0.60;0.60;;;17.00;57.60;;;;;;5015384;28;20731;-55
2021/08/12 04:03:58;;;;;;;0.57;0.57;;;17.00;57.40;;;;;;5028358;28;20210;-49
2021/08/12 04:06:29;;;;;;;0.47;0.47;;;17.00;57.40;;;;;;5028157;28;20274;-53
2021/08/12 04:09:01;;;;;;;0.70;0.70;;;16.90;57.40;;;;;;4994132;28;20221;-52
2021/08/12 04:11:32;;;;;;;0.75;0.70;;;17.00;57.40;;;;;;4997331;28;20244;-55
2021/08/12 04:14:02;;;;;;;1.08;0.68;;;16.90;57.30;;;;;;5013775;28;20819;-57
2021/08/12 04:16:32;;;;;;;0.50;0.50;;;17.00;57.40;;;;;;5005165;28;20765;-55
2021/08/12 04:19:03;;;;;;;1.90;0.80;;;17.00;57.40;;;;;;4993606;28;20229;-56
2021/08/12 04:21:33;;;;;;;0.65;0.55;;;17.00;57.30;;;;;;4994117;28;20273;-47
2021/08/12 04:24:23;;;;;;;0.82;0.70;;;17.00;57.30;;;;;;4993779;28;20448;-53
2021/08/12 04:26:54;;;;;;;0.60;0.60;;;17.00;57.60;;;;;;4993704;28;20253;-50
2021/08/12 04:29:24;;;;;;;0.77;0.77;;;17.00;57.20;;;;;;5004024;28;20228;-57
2021/08/12 04:31:54;;;;;;;0.75;0.70;;;17.00;57.20;;;;;;5012942;28;20236;-57
2021/08/12 04:34:25;;;;;;;0.60;0.60;;;17.00;57.20;;;;;;5014288;28;20618;-54
2021/08/12 04:36:55;;;;;;;0.75;0.60;;;17.00;57.20;;;;;;5013658;28;20300;-52
2021/08/12 04:39:28;;;;;;;1.05;0.73;;;16.90;57.10;;;;;;5013314;28;20728;-48
2021/08/12 04:41:58;;;;;;;1.85;0.60;;;16.90;57.10;;;;;;5013082;28;20724;-50
2021/08/12 04:44:29;;;;;;;1.38;0.80;;;16.90;57.10;;;;;;5013534;28;20236;-53
2021/08/12 04:46:59;;;;;;;0.60;0.60;;;16.90;57.10;;;;;;5012767;28;20252;-55
2021/08/12 04:49:29;;;;;;;1.00;0.80;;;16.90;57.20;;;;;;5013984;28;20231;-51
2021/08/12 04:52:17;;;;;;;0.70;0.70;;;16.90;57.30;;;;;;5013155;28;20232;-51
2021/08/12 04:54:49;;;;;;;1.38;0.68;;;17.00;57.30;;;;;;5013824;28;20232;-55
2021/08/12 04:57:20;;;;;;;0.98;0.88;;;17.00;57.20;;;;;;4996291;28;20268;-48
2021/08/12 04:59:50;;;;;;;1.92;0.75;;;17.00;57.20;;;;;;4992722;28;20343;-52
2021/08/12 05:02:20;;;;;;;1.02;0.90;;;17.00;57.10;;;;;;4993566;28;20805;-49
2021/08/12 05:04:51;;;;;;;1.25;0.80;;;17.00;57.10;;;;;;4992876;28;20673;-50
2021/08/12 05:07:21;;;;;;;0.95;0.80;;;17.00;57.10;;;;;;4994010;28;20644;-50
2021/08/12 05:09:54;;;;;;;0.93;0.70;;;17.00;57.10;;;;;;4992341;28;20269;-53
2021/08/12 05:12:24;;;;;;;0.70;0.70;;;17.00;57.00;;;;;;5003251;28;20237;-50
2021/08/12 05:14:55;;;;;;;2.60;0.90;;;17.00;56.90;;;;;;5012573;28;20243;-51
2021/08/12 05:17:25;;;;;;;0.85;0.85;;;17.00;57.00;;;;;;5012145;28;20259;-51
2021/08/12 05:19:55;;;;;;;0.90;0.63;;;17.00;57.10;;;;;;5012923;28;20283;-48
2021/08/12 05:22:26;;;;;;;1.70;0.90;;;17.00;57.00;;;;;;5012799;28;20269;-50
2021/08/12 05:24:58;;;;;;;0.90;0.82;;;17.00;56.90;;;;;;5012960;28;20291;-50
2021/08/12 05:27:29;;;;;;;1.52;0.60;;;17.00;56.90;;;;;;5012215;28;20244;-49
2021/08/12 05:29:59;;;;;;;1.45;0.70;;;17.00;56.90;;;;;;5012633;28;20205;-51
2021/08/12 05:32:30;;;;;;;1.30;0.88;;;17.00;56.90;;;;;;5011489;28;20236;-49
2021/08/12 05:35:00;;;;;;;0.80;0.80;;;17.00;56.80;;;;;;5011708;28;20224;-55
2021/08/12 05:37:30;;;;;;;0.60;0.60;;;17.00;56.80;;;;;;5011157;28;20253;-50
2021/08/12 05:40:03;;;;;;;0.80;0.80;;;17.00;56.70;;;;;;5012266;28;20235;-51
2021/08/12 05:42:33;;;;;;;0.88;0.80;;;17.00;56.60;;;;;;5011577;28;20311;-52
2021/08/12 05:45:04;;;;;;;0.60;0.60;;;17.00;56.50;;;;;;5011773;28;20232;-51
2021/08/12 05:47:34;;;;;;;1.33;0.77;;;17.00;56.40;;;;;;5012529;28;20252;-50
2021/08/12 05:53:00;;;;;;;0.85;0.70;;;17.00;56.20;;;;;;5012349;28;20200;-51
2021/08/12 05:58:18;;;;;;;1.00;0.60;;;17.00;56.20;;;;;;5011419;28;20195;-49
2021/08/12 06:00:49;;;;;;;1.02;0.68;;;17.00;56.20;;;;;;5011984;28;20628;-51
2021/08/12 06:03:19;;;;;;;0.73;0.60;;;17.00;56.20;;;;;;5011879;28;20324;-51
2021/08/12 06:05:50;;;;;;;2.28;1.20;;;17.00;56.20;;;;;;5012011;28;20252;-53
2021/08/12 06:11:08;;;;;;;5.30;4.45;;;16.90;56.30;;;;;;5011506;28;20220;-50
2021/08/12 06:13:39;;;;;;;3.85;2.72;;;17.00;56.30;;;;;;4992512;28;20201;-47
2021/08/12 06:16:10;;;;;;;8.57;6.13;;;17.00;56.30;;;;;;4992025;28;20744;-46
2021/08/12 06:18:40;;;;;;;24.08;17.38;;;17.00;56.30;;;;;;4992282;28;20205;-53
2021/08/12 06:21:13;;;;;;;41.42;29.35;;;16.90;56.30;;;;;;5000122;28;20262;-46
2021/08/12 06:23:43;;;;;;;260.60;188.48;;;16.90;56.30;;;;;;5011384;28;20233;-46
2021/08/12 06:26:16;;;;;;;228.95;162.65;;;16.90;56.40;;;;;;5010773;28;20727;-47
2021/08/12 06:28:46;;;;;;;233.30;172.77;;;16.90;56.30;;;;;;5011741;28;20681;-46
2021/08/12 06:31:17;;;;;;;196.77;141.32;;;16.90;56.40;;;;;;5013324;28;20193;-51
2021/08/12 06:36:51;;;;;;;1471.22;962.83;;;17.00;56.40;;;;;;5010490;28;20219;-51
2021/08/12 06:39:22;;;;;;;1223.63;877.47;;;17.00;56.50;;;;;;5010960;28;20616;-46
2021/08/12 06:41:54;;;;;;;1125.15;835.80;;;17.00;56.40;;;;;;5011403;28;20683;-51
2021/08/12 06:44:24;;;;;;;1157.22;846.50;;;17.00;56.20;;;;;;5011025;28;20665;-52
2021/08/12 06:46:55;;;;;;;1073.45;813.47;;;16.90;56.10;;;;;;5010745;28;20712;-49
2021/08/12 06:49:25;;;;;;;1018.08;789.30;;;16.90;56.10;;;;;;5010632;28;20242;-47
2021/08/12 06:51:56;;;;;;;1013.58;786.90;;;16.90;56.20;;;;;;5011063;28;20232;-48
2021/08/12 06:54:26;;;;;;;979.72;763.72;;;16.90;56.10;;;;;;5021863;23;20323;-58
2021/08/12 06:56:58;;;;;;;920.08;735.35;;;16.90;56.10;;;;;;5011409;28;20298;-55
2021/08/12 06:59:46;;;;;;;871.60;710.83;;;16.90;56.10;;;;;;5010582;28;20505;-56
2021/08/12 07:02:17;;;;;;;847.72;684.95;;;17.00;56.10;;;;;;5010850;28;20248;-53
2021/08/12 07:05:05;;;;;;;824.97;671.22;;;16.90;56.00;;;;;;5010031;28;20236;-54
2021/08/12 07:07:54;;;;;;;787.15;643.13;;;16.90;56.00;;;;;;5010772;28;20642;-56
2021/08/12 07:10:24;;;;;;;760.65;628.65;;;16.90;55.90;;;;;;5010397;28;20232;-56
2021/08/12 07:12:56;;;;;;;729.65;597.40;;;16.90;55.80;;;;;;5011060;28;20208;-56
2021/08/12 07:15:44;;;;;;;719.38;597.05;;;16.90;55.80;;;;;;5011084;28;20516;-55
2021/08/12 07:18:15;;;;;;;693.80;571.92;;;16.90;55.80;;;;;;5011012;28;20235;-57
2021/08/12 07:20:47;;;;;;;692.97;571.20;;;16.90;55.80;;;;;;5010868;28;20200;-54
2021/08/12 07:23:18;;;;;;;646.70;534.10;;;16.90;56.00;;;;;;5013308;28;20239;-55
2021/08/12 07:25:48;;;;;;;606.13;497.20;;;16.90;56.00;;;;;;5015570;28;20260;-54
2021/08/12 07:28:20;;;;;;;578.65;467.27;;;16.90;56.00;;;;;;5013768;28;20290;-56
2021/08/12 07:30:51;;;;;;;573.67;463.13;;;16.90;56.00;;;;;;5014779;28;20494;-56
2021/08/12 07:33:21;;;;;;;565.78;458.08;;;16.90;56.00;;;;;;5014945;28;20262;-55
2021/08/12 07:38:38;;;;;;;544.28;439.88;;;16.90;56.00;;;;;;5014736;28;20195;-56
2021/08/12 07:41:08;;;;;;;540.05;434.83;;;16.90;56.00;;;;;;5014987;28;20239;-57
2021/08/12 07:43:41;;;;;;;528.53;418.67;;;16.90;56.10;;;;;;5014837;28;20300;-57
2021/08/12 07:46:13;;;;;;;525.55;410.52;;;16.90;56.00;;;;;;5012550;28;20283;-58
2021/08/12 07:49:01;;;;;;;514.63;404.00;;;16.90;56.00;;;;;;5014216;28;20619;-57
2021/08/12 07:51:32;;;;;;;505.30;393.63;;;16.90;56.00;;;;;;5011704;28;20189;-59
2021/08/12 07:59:37;;;;;;;489.40;374.98;;;16.80;56.00;;;;;;5000738;28;20274;-45
2021/08/12 08:02:08;;;;;;;484.30;379.70;;;16.80;56.00;;;;;;5005057;28;20610;-41
2021/08/12 08:04:56;;;;;;;489.20;383.52;;;16.80;56.00;;;;;;5000746;28;20225;-42
2021/08/12 08:07:26;;;;;;;477.73;366.17;;;16.80;56.10;;;;;;5004879;28;20291;-41
2021/08/12 08:09:56;;;;;;;463.95;357.02;;;16.80;56.10;;;;;;5013869;28;20239;-44
2021/08/12 08:12:27;;;;;;;470.65;362.13;;;16.80;56.20;;;;;;5013920;28;20232;-44
2021/08/12 08:14:59;;;;;;;467.73;358.75;;;16.80;56.20;;;;;;5013859;28;20239;-41
2021/08/12 08:17:29;;;;;;;461.92;346.55;;;16.80;56.30;;;;;;5013482;28;20248;-44
2021/08/12 08:20:00;;;;;;;450.67;340.58;;;16.80;56.20;;;;;;5013934;28;20507;-42
2021/08/12 08:22:30;;;;;;;438.15;330.33;;;16.80;56.30;;;;;;5014487;28;20731;-41
2021/08/12 08:25:01;;;;;;;439.27;332.55;;;16.80;56.40;;;;;;4996122;28;20206;-43
2021/08/12 08:27:31;;;;;;;431.17;322.42;;;16.80;56.40;;;;;;4994056;28;20266;-42
2021/08/12 08:32:50;;;;;;;424.13;311.92;;;16.80;56.30;;;;;;4994459;28;20201;-42
2021/08/12 08:38:07;;;;;;;411.13;301.50;;;16.70;56.30;;;;;;4994236;28;20550;-43
2021/08/12 08:40:38;;;;;;;409.02;295.25;;;16.70;56.30;;;;;;4994388;28;20240;-43
2021/08/12 08:43:09;;;;;;;400.80;287.88;;;16.70;56.30;;;;;;4994777;28;20299;-44
2021/08/12 08:45:41;;;;;;;410.08;296.88;;;16.70;56.40;;;;;;4994486;28;20221;-44
2021/08/12 08:48:12;;;;;;;389.00;276.80;;;16.70;56.40;;;;;;4994473;28;20229;-45
2021/08/12 08:50:43;;;;;;;383.80;276.10;;;16.70;56.40;;;;;;4993471;28;20308;-45
2021/08/12 08:55:44;;;;;;;384.67;270.02;;;16.70;56.50;;;;;;5011674;28;20224;-59
2021/08/12 08:58:15;;;;;;;365.80;258.83;;;16.70;56.50;;;;;;5013906;28;20633;-53
2021/08/12 09:00:48;;;;;;;350.75;249.52;;;16.70;56.50;;;;;;5013125;28;20232;-57
2021/08/12 09:03:18;;;;;;;330.58;242.63;;;16.70;56.50;;;;;;5013309;28;20769;-53
2021/08/12 09:05:48;;;;;;;316.02;220.20;;;16.70;56.50;;;;;;5013236;28;20585;-58
2021/08/12 09:08:19;;;;;;;319.42;225.85;;;16.70;56.60;;;;;;5013147;28;20229;-57
2021/08/12 09:10:51;;;;;;;315.27;222.60;;;16.70;56.60;;;;;;5013459;28;20193;-56
2021/08/12 09:16:45;;;;;;;308.98;219.77;;;16.70;56.60;;;;;;5013271;28;20262;-57
2021/08/12 09:19:20;;;;;;;302.67;211.35;;;16.70;56.50;;;;;;5013217;28;20556;-59
2021/08/12 09:21:50;;;;;;;278.75;192.27;;;16.60;56.50;;;;;;5013237;28;20393;-56
2021/08/12 09:24:50;;;;;;;250.73;176.38;;;16.70;56.60;;;;;;5012612;28;20319;-58
2021/08/12 09:27:23;;;;;;;230.48;158.75;;;16.60;56.70;;;;;;5013035;28;20260;-58
2021/08/12 09:30:11;;;;;;;224.35;156.25;;;16.60;56.90;;;;;;5013121;28;20262;-56
2021/08/12 09:32:50;;;;;;;237.82;164.43;;;16.60;57.00;;;;;;5013051;28;20649;-55
2021/08/12 09:35:27;;;;;;;241.00;166.23;;;16.70;57.00;;;;;;5013029;28;20235;-54
2021/08/12 09:38:09;;;;;;;238.55;164.02;;;16.70;57.00;;;;;;5012865;28;20232;-57
2021/08/12 09:40:39;;;;;;;231.77;162.35;;;16.70;57.00;;;;;;5012850;28;20201;-59
2021/08/12 09:43:10;;;;;;;233.45;164.55;;;16.70;57.10;;;;;;5012400;28;20260;-56
2021/08/12 09:45:41;;;;;;;224.45;159.05;;;16.70;57.10;;;;;;5011672;28;20221;-55
2021/08/12 09:48:18;;;;;;;220.43;156.20;;;16.60;57.00;;;;;;5012777;28;20197;-59
2021/08/12 09:51:07;;;;;;;223.70;155.07;;;16.60;57.00;;;;;;5012786;28;20270;-57
2021/08/12 09:53:37;;;;;;;211.57;148.13;;;16.60;57.00;;;;;;5021626;23;20213;-55
2021/08/12 09:56:11;;;;;;;211.82;150.13;;;16.70;57.00;;;;;;5012391;28;20252;-51
2021/08/12 09:58:42;;;;;;;206.07;145.93;;;16.70;57.00;;;;;;5012360;28;20232;-52
2021/08/12 10:01:22;;;;;;;200.40;142.35;;;16.60;56.90;;;;;;5012791;28;20259;-49
2021/08/12 10:03:54;;;;;;;211.90;146.43;;;16.60;57.00;;;;;;5012438;28;20228;-54
2021/08/12 10:06:25;;;;;;;205.25;144.25;;;16.60;57.00;;;;;;5012473;28;20281;-48
2021/08/12 10:08:55;;;;;;;205.98;142.27;;;16.60;57.00;;;;;;5010521;28;20208;-49
2021/08/12 10:11:28;;;;;;;201.57;140.98;;;16.60;57.00;;;;;;5012251;28;20239;-49
2021/08/12 10:13:58;;;;;;;198.13;142.82;;;16.60;57.00;;;;;;5012437;28;20603;-49
2021/08/12 10:17:04;;;;;;;195.55;137.18;;;16.60;57.00;;;;;;5011751;28;20256;-49
2021/08/12 10:19:36;;;;;;;196.07;140.32;;;16.60;57.00;;;;;;5011704;28;20283;-48
2021/08/12 10:22:07;;;;;;;195.27;137.80;;;16.60;57.00;;;;;;5012418;28;20283;-48
2021/08/12 10:24:37;;;;;;;188.27;135.55;;;16.60;57.00;;;;;;5012039;28;20359;-49
2021/08/12 10:27:08;;;;;;;184.50;130.35;;;16.60;57.00;;;;;;5010294;28;20255;-50
2021/08/12 10:29:56;;;;;;;183.15;130.75;;;16.60;57.00;;;;;;5010995;28;20610;-50
2021/08/12 10:35:18;;;;;;;183.20;128.98;;;16.50;57.00;;;;;;5010036;28;20232;-50
2021/08/12 10:37:48;;;;;;;177.10;127.85;;;16.60;57.00;;;;;;5011318;28;20232;-53
2021/08/12 10:40:37;;;;;;;174.75;126.05;;;16.50;57.00;;;;;;5010798;28;20224;-49
2021/08/12 10:43:08;;;;;;;172.45;125.68;;;16.50;57.00;;;;;;5010669;28;20337;-51
2021/08/12 10:45:38;;;;;;;172.60;123.22;;;16.50;57.10;;;;;;5010984;28;20272;-54
2021/08/12 10:48:09;;;;;;;165.35;118.50;;;16.50;57.10;;;;;;5010590;28;20827;-50
2021/08/12 10:50:45;;;;;;;162.32;117.95;;;16.50;57.10;;;;;;5011351;28;20705;-54
2021/08/12 10:53:24;;;;;;;159.43;117.95;;;16.50;57.10;;;;;;5010835;28;20232;-65
2021/08/12 10:56:11;;;;;;;161.93;116.25;;;16.50;57.20;;;;;;5010421;28;20212;-50
2021/08/12 10:58:48;;;;;;;158.63;114.60;;;16.50;57.10;;;;;;5010073;28;20228;-53
2021/08/12 11:01:31;;;;;;;150.80;111.85;;;16.50;57.10;;;;;;5011152;28;20236;-52
2021/08/12 11:04:03;;;;;;;151.00;109.47;;;16.50;57.10;;;;;;5010319;28;20307;-52
2021/08/12 11:06:43;;;;;;;149.80;107.45;;;16.50;57.10;;;;;;5009800;28;20209;-54
2021/08/12 11:09:31;;;;;;;143.88;106.50;;;16.50;57.10;;;;;;5010748;28;20236;-53
2021/08/12 11:12:04;;;;;;;144.57;100.68;;;16.50;57.10;;;;;;5010300;28;20280;-55
2021/08/12 11:14:53;;;;;;;140.00;103.80;;;16.50;57.10;;;;;;5011111;28;20240;-52
2021/08/12 11:17:56;;;;;;;132.35;99.38;;;16.50;57.10;;;;;;5010134;28;20244;-47
2021/08/12 11:20:36;;;;;;;133.57;96.35;;;16.50;57.10;;;;;;5010819;28;20238;-56
2021/08/12 11:23:45;;;;;;;131.90;98.35;;;16.50;57.10;;;;;;5010954;28;20286;-52
2021/08/12 11:26:15;;;;;;;124.68;90.18;;;16.40;57.10;;;;;;5010964;28;20252;-52
2021/08/12 11:28:55;;;;;;;122.63;90.82;;;16.50;57.10;;;;;;5010971;28;20193;-59
2021/08/12 11:31:56;;;;;;;120.85;89.07;;;16.40;57.10;;;;;;5010999;28;20640;-51
2021/08/12 11:34:30;;;;;;;115.20;84.55;;;16.40;57.10;;;;;;5010828;28;20257;-51
2021/08/12 11:37:08;;;;;;;113.90;82.72;;;16.50;57.20;;;;;;5009712;28;20548;-57
2021/08/12 11:39:51;;;;;;;111.85;81.72;;;16.40;57.10;;;;;;5009985;28;20274;-56
2021/08/12 11:42:43;;;;;;;106.40;77.35;;;16.40;57.10;;;;;;5010590;28;20204;-57
2021/08/12 11:45:17;;;;;;;105.45;78.53;;;16.50;57.10;;;;;;5009918;28;20220;-55
2021/08/12 11:47:47;;;;;;;104.60;77.60;;;16.50;57.10;;;;;;5011390;28;20236;-48
2021/08/12 11:50:18;;;;;;;107.35;80.03;;;16.40;57.00;;;;;;5010951;28;20670;-51
2021/08/12 11:52:49;;;;;;;98.25;74.50;;;16.40;57.00;;;;;;5010432;28;20232;-54
2021/08/12 11:55:22;;;;;;;101.97;76.43;;;16.40;57.10;;;;;;5010523;28;20247;-51
2021/08/12 11:57:53;;;;;;;100.38;74.05;;;16.40;57.00;;;;;;5010905;28;20761;-49
2021/08/12 12:00:24;;;;;;;95.78;73.10;;;16.40;57.00;;;;;;5010766;28;20235;-56
2021/08/12 12:02:55;;;;;;;106.55;78.07;;;16.40;57.10;;;;;;5011050;28;20263;-59
2021/08/12 12:05:25;;;;;;;96.60;73.43;;;16.40;57.20;;;;;;5010831;28;20320;-52
2021/08/12 12:07:56;;;;;;;98.78;72.72;;;16.40;57.30;;;;;;5011736;28;20862;-55
2021/08/12 12:10:34;;;;;;;97.20;73.07;;;16.50;57.30;;;;;;5014112;28;20290;-52
2021/08/12 12:13:11;;;;;;;93.03;69.25;;;16.50;57.30;;;;;;5014189;28;20627;-52
2021/08/12 12:15:41;;;;;;;94.80;68.28;;;16.50;57.30;;;;;;5014806;28;20303;-51
2021/08/12 12:18:12;;;;;;;88.68;67.95;;;16.50;57.30;;;;;;5014466;28;20255;-57
2021/08/12 12:20:44;;;;;;;90.85;67.32;;;16.50;57.20;;;;;;5014096;28;20232;-55
2021/08/12 12:23:16;;;;;;;92.28;67.70;;;16.50;57.10;;;;;;5013861;28;20228;-57
2021/08/12 12:25:53;;;;;;;86.15;63.03;;;16.50;57.20;;;;;;5013339;28;20279;-50
2021/08/12 12:28:23;;;;;;;87.30;65.28;;;16.50;57.10;;;;;;5014086;28;20207;-58
2021/08/12 12:33:40;;;;;;;87.40;63.40;;;16.50;57.10;;;;;;4995028;28;20228;-55
2021/08/12 12:36:11;;;;;;;78.28;61.47;;;16.50;57.10;;;;;;4994469;28;20263;-51
2021/08/12 12:38:58;;;;;;;84.75;62.67;;;16.50;57.10;;;;;;4994815;28;20244;-55
2021/08/12 12:41:31;;;;;;;79.55;61.03;;;16.40;57.10;;;;;;4994547;28;20634;-51
2021/08/12 12:44:10;;;;;;;80.57;61.38;;;16.40;57.20;;;;;;4994737;28;20733;-53
2021/08/12 12:46:40;;;;;;;79.40;60.58;;;16.50;57.30;;;;;;4994782;28;20213;-58
2021/08/12 12:49:46;;;;;;;79.45;60.65;;;16.40;57.20;;;;;;4994693;28;20289;-48
2021/08/12 12:52:17;;;;;;;79.45;59.17;;;16.50;57.30;;;;;;4994276;28;20225;-52
2021/08/12 12:54:48;;;;;;;83.55;60.70;;;16.50;57.30;;;;;;5011308;28;20252;-56
2021/08/12 12:57:31;;;;;;;78.10;59.30;;;16.50;57.30;;;;;;5013662;28;20220;-54
2021/08/12 13:00:02;;;;;;;76.15;56.88;;;16.50;57.30;;;;;;5014014;28;20283;-52
2021/08/12 13:02:32;;;;;;;82.00;61.20;;;16.50;57.30;;;;;;5013789;28;20247;-53
2021/08/12 13:05:03;;;;;;;77.68;60.10;;;16.50;57.30;;;;;;5013740;28;20320;-56
2021/08/12 13:07:33;;;;;;;75.60;56.13;;;16.50;57.30;;;;;;5013567;28;20263;-53
2021/08/12 13:13:05;;;;;;;74.95;55.45;;;16.50;57.30;;;;;;5013591;28;20212;-57
2021/08/12 13:15:36;;;;;;;73.22;54.10;;;16.50;57.30;;;;;;5012952;28;20228;-57
2021/08/12 13:18:07;;;;;;;71.97;56.92;;;16.50;57.30;;;;;;5013177;28;20248;-52
2021/08/12 13:20:44;;;;;;;74.22;56.22;;;16.50;57.30;;;;;;5012050;28;20275;-55
2021/08/12 13:23:14;;;;;;;67.97;53.70;;;16.50;57.30;;;;;;5013267;28;20284;-53
2021/08/12 13:25:56;;;;;;;71.72;53.80;;;16.50;57.40;;;;;;5012998;28;20307;-52
2021/08/12 13:28:54;;;;;;;68.72;54.03;;;16.50;57.30;;;;;;5013173;28;20280;-52
2021/08/12 13:31:25;;;;;;;69.18;52.83;;;16.50;57.30;;;;;;5012732;28;20709;-54
2021/08/12 13:33:55;;;;;;;69.18;51.72;;;16.50;57.30;;;;;;5013230;28;20239;-54
2021/08/12 13:36:26;;;;;;;68.97;52.70;;;16.50;57.30;;;;;;5013330;28;20259;-50
2021/08/12 13:38:56;;;;;;;66.90;52.50;;;16.50;57.30;;;;;;5013490;28;20228;-56
2021/08/12 13:41:26;;;;;;;63.80;50.10;;;16.50;57.40;;;;;;5012717;28;20228;-55
2021/08/12 13:44:16;;;;;;;65.05;50.92;;;16.50;57.30;;;;;;5012678;28;20259;-53
2021/08/12 13:46:47;;;;;;;61.75;48.95;;;16.50;57.30;;;;;;5012932;28;20252;-56
2021/08/12 13:49:17;;;;;;;62.38;50.05;;;16.50;57.30;;;;;;5012912;28;20236;-54
2021/08/12 13:52:23;;;;;;;64.45;49.70;;;16.50;57.30;;;;;;5013446;28;20255;-55
2021/08/12 13:55:11;;;;;;;65.40;49.42;;;16.50;57.30;;;;;;5013178;28;20691;-55
2021/08/12 13:57:41;;;;;;;64.82;50.08;;;16.50;57.40;;;;;;5012732;28;20221;-58